Time;durP1;ratioP1;P1;durP2;ratioP2;P2;SDS_P1;SDS_P2;PMS_P1;PMS_P2;Temp;Humidity;BMP_temperature;BMP_pressure;BME280_temperature;BME280_humidity;BME280_pressure;Samples;Min_cycle;Max_cycle;Signal;HPM_P1;HPM_P2
2023/01/08 00:01:07;;;;;;;12.57;11.27;;;3.50;99.90;;;;;;4982374;28;20626;-74
2023/01/08 00:03:35;;;;;;;11.40;10.30;;;3.50;99.90;;;;;;4983113;28;20596;-74
2023/01/08 00:06:03;;;;;;;12.90;11.60;;;3.60;99.90;;;;;;4987995;28;20227;-76
2023/01/08 00:08:31;;;;;;;11.75;10.55;;;3.60;99.90;;;;;;4988081;28;20208;-75
2023/01/08 00:10:59;;;;;;;11.93;10.82;;;3.60;99.90;;;;;;4983952;28;20224;-74
2023/01/08 00:13:26;;;;;;;11.07;9.98;;;3.60;99.90;;;;;;4981065;28;20692;-74
2023/01/08 00:15:53;;;;;;;10.73;9.60;;;3.60;99.90;;;;;;4982858;28;20259;-75
2023/01/08 00:18:23;;;;;;;10.82;9.73;;;3.50;99.90;;;;;;4982624;28;20224;-75
2023/01/08 00:20:50;;;;;;;10.27;9.38;;;3.50;99.90;;;;;;4985779;28;20378;-75
2023/01/08 00:23:19;;;;;;;10.60;9.57;;;3.60;99.90;;;;;;4986243;28;20193;-77
2023/01/08 00:25:46;;;;;;;10.05;8.98;;;3.60;99.90;;;;;;4985471;28;20283;-74
2023/01/08 00:28:14;;;;;;;9.88;8.93;;;3.60;99.90;;;;;;4985065;28;20196;-75
2023/01/08 00:30:41;;;;;;;10.25;9.20;;;3.70;99.90;;;;;;4983857;28;20230;-77
2023/01/08 00:33:09;;;;;;;11.10;10.00;;;3.70;99.90;;;;;;4987313;28;20229;-73
2023/01/08 00:35:38;;;;;;;12.50;11.18;;;3.70;99.90;;;;;;4984947;28;20734;-75
2023/01/08 00:38:05;;;;;;;11.48;10.27;;;3.70;99.90;;;;;;4986066;28;20216;-72
2023/01/08 00:40:33;;;;;;;12.25;11.00;;;3.70;99.90;;;;;;4983651;28;20236;-73
2023/01/08 00:43:00;;;;;;;10.52;9.52;;;3.70;99.90;;;;;;4986443;28;20194;-76
2023/01/08 00:45:27;;;;;;;12.55;11.25;;;3.70;99.90;;;;;;4980148;28;20240;-77
2023/01/08 00:47:54;;;;;;;11.52;10.25;;;3.60;99.90;;;;;;4984667;28;20201;-74
2023/01/08 00:50:21;;;;;;;13.30;11.30;;;3.60;99.90;;;;;;4983893;28;20220;-74
2023/01/08 00:52:50;;;;;;;10.10;9.10;;;3.60;99.90;;;;;;4984416;28;20220;-74
2023/01/08 00:55:17;;;;;;;10.50;9.50;;;3.60;99.90;;;;;;4985849;28;20236;-79
2023/01/08 00:57:44;;;;;;;9.95;8.95;;;3.60;99.90;;;;;;4982890;28;20201;-70
2023/01/08 01:00:14;;;;;;;9.02;8.23;;;3.60;99.90;;;;;;4984507;28;20224;-74
2023/01/08 01:02:42;;;;;;;9.80;8.88;;;3.60;99.90;;;;;;4983392;28;20208;-78
2023/01/08 01:05:09;;;;;;;9.88;8.98;;;3.60;99.90;;;;;;4982760;28;20231;-75
2023/01/08 01:07:37;;;;;;;10.65;9.65;;;3.60;99.90;;;;;;4987621;28;20204;-77
2023/01/08 01:10:07;;;;;;;11.30;10.20;;;3.60;99.90;;;;;;4983992;28;20225;-76
2023/01/08 01:12:34;;;;;;;10.07;9.18;;;3.60;99.90;;;;;;4981601;28;20785;-79
2023/01/08 01:15:01;;;;;;;11.02;9.90;;;3.60;99.90;;;;;;4983827;28;20579;-81
2023/01/08 01:17:28;;;;;;;11.30;10.20;;;3.60;99.90;;;;;;4986478;28;20205;-75
2023/01/08 01:19:55;;;;;;;11.32;10.15;;;3.50;99.90;;;;;;4984039;28;20232;-74
2023/01/08 01:22:22;;;;;;;11.05;10.05;;;3.50;99.90;;;;;;4985325;28;20614;-80
2023/01/08 01:24:49;;;;;;;11.70;10.60;;;3.50;99.90;;;;;;4985320;28;20224;-74
2023/01/08 01:27:17;;;;;;;11.65;10.40;;;3.50;99.90;;;;;;4982795;28;20205;-77
2023/01/08 01:29:44;;;;;;;11.85;10.65;;;3.50;99.90;;;;;;4983035;28;20233;-73
2023/01/08 01:32:11;;;;;;;13.10;11.70;;;3.40;99.90;;;;;;4984581;28;20263;-77
2023/01/08 01:34:38;;;;;;;12.35;11.05;;;3.20;99.90;;;;;;4984376;28;20232;-77
2023/01/08 01:37:06;;;;;;;11.52;10.35;;;3.00;99.90;;;;;;4984734;28;20576;-77
2023/01/08 01:39:33;;;;;;;11.23;10.13;;;3.00;99.90;;;;;;4983079;28;20224;-75
2023/01/08 01:42:00;;;;;;;10.95;9.88;;;3.00;99.90;;;;;;4982507;28;20277;-77
2023/01/08 01:44:44;;;;;;;10.88;9.77;;;3.10;99.90;;;;;;4983986;28;20208;-71
2023/01/08 01:47:20;;;;;;;11.52;10.43;;;3.20;99.90;;;;;;4985986;28;20201;-74
2023/01/08 01:50:03;;;;;;;10.57;9.57;;;3.30;99.90;;;;;;4982546;28;20640;-76
2023/01/08 01:52:33;;;;;;;12.13;10.40;;;3.40;99.90;;;;;;4984950;28;20294;-75
2023/01/08 01:55:01;;;;;;;11.48;10.38;;;3.40;99.90;;;;;;4984210;28;20225;-76
2023/01/08 01:57:28;;;;;;;11.43;10.32;;;3.40;99.90;;;;;;4983096;28;20220;-75
2023/01/08 01:59:59;;;;;;;11.50;10.38;;;3.30;99.90;;;;;;4978836;28;20232;-74
2023/01/08 02:02:26;;;;;;;11.15;10.05;;;3.30;99.90;;;;;;4985364;28;20609;-75
2023/01/08 02:04:53;;;;;;;11.35;10.25;;;3.30;99.90;;;;;;4981425;28;20229;-75
2023/01/08 02:07:27;;;;;;;9.80;8.90;;;3.30;99.90;;;;;;4989104;28;20225;-78
2023/01/08 02:10:04;;;;;;;9.32;8.43;;;3.30;99.90;;;;;;4988016;28;20216;-76
2023/01/08 02:12:35;;;;;;;10.57;9.57;;;3.30;99.90;;;;;;4988356;28;20789;-77
2023/01/08 02:15:13;;;;;;;10.77;8.35;;;3.40;99.90;;;;;;4985572;28;20272;-77
2023/01/08 02:17:48;;;;;;;11.88;10.77;;;3.40;99.90;;;;;;4986715;28;20691;-78
2023/01/08 02:20:19;;;;;;;10.82;9.80;;;3.40;99.90;;;;;;4988446;28;20229;-74
2023/01/08 02:22:56;;;;;;;12.45;11.13;;;3.40;99.90;;;;;;4988704;28;20944;-79
2023/01/08 02:25:36;;;;;;;10.57;9.50;;;3.40;99.90;;;;;;4987908;28;20279;-77
2023/01/08 02:28:09;;;;;;;9.98;8.98;;;3.30;99.90;;;;;;4985247;28;20861;-74
2023/01/08 02:30:36;;;;;;;10.40;9.40;;;3.40;99.90;;;;;;4989612;28;20287;-75
2023/01/08 02:33:04;;;;;;;9.75;8.93;;;3.40;99.90;;;;;;4987599;28;20228;-77
2023/01/08 02:35:37;;;;;;;8.63;7.68;;;3.40;99.90;;;;;;4987619;28;20707;-74
2023/01/08 02:38:05;;;;;;;9.55;8.65;;;3.40;99.90;;;;;;4988199;28;20297;-75
2023/01/08 02:40:37;;;;;;;10.95;9.80;;;3.50;99.90;;;;;;4988588;28;20450;-75
2023/01/08 02:43:12;;;;;;;9.77;8.88;;;3.50;99.90;;;;;;4987673;28;20340;-74
2023/01/08 02:45:46;;;;;;;9.07;8.18;;;3.50;99.90;;;;;;5007788;23;20224;-77
2023/01/08 02:48:18;;;;;;;8.68;7.85;;;3.40;99.90;;;;;;4985157;28;20675;-77
2023/01/08 02:50:54;;;;;;;9.27;8.48;;;3.40;99.90;;;;;;4986507;28;20221;-79
2023/01/08 02:53:25;;;;;;;8.25;7.55;;;3.30;99.90;;;;;;4986722;28;20302;-79
2023/01/08 02:55:55;;;;;;;9.50;8.63;;;3.30;99.90;;;;;;4984491;28;20235;-79
2023/01/08 02:58:26;;;;;;;9.65;8.65;;;3.30;99.90;;;;;;4986116;28;20205;-76
2023/01/08 03:00:54;;;;;;;9.13;8.23;;;3.40;99.90;;;;;;4982602;28;20221;-78
2023/01/08 03:03:24;;;;;;;7.85;7.05;;;3.40;99.90;;;;;;4988206;28;20611;-79
2023/01/08 03:05:55;;;;;;;9.93;9.02;;;3.40;99.90;;;;;;4984525;28;20221;-80
2023/01/08 03:08:23;;;;;;;9.75;8.85;;;3.40;99.90;;;;;;4984803;28;20694;-78
2023/01/08 03:10:55;;;;;;;9.57;8.70;;;3.40;99.90;;;;;;4984758;28;20802;-78
2023/01/08 03:13:26;;;;;;;10.68;9.68;;;3.40;99.90;;;;;;4988267;28;20252;-76
2023/01/08 03:15:57;;;;;;;9.93;9.02;;;3.40;99.90;;;;;;4986900;28;20645;-77
2023/01/08 03:18:30;;;;;;;11.27;10.23;;;3.30;99.90;;;;;;4985926;28;20196;-77
2023/01/08 03:20:58;;;;;;;11.05;10.02;;;3.30;99.90;;;;;;4986341;28;20221;-77
2023/01/08 03:23:28;;;;;;;9.52;8.57;;;3.20;99.90;;;;;;4987412;28;20189;-78
2023/01/08 03:25:56;;;;;;;9.63;8.73;;;3.10;99.90;;;;;;4984633;28;20224;-78
2023/01/08 03:28:29;;;;;;;10.38;9.38;;;3.10;99.90;;;;;;4985754;28;20205;-77
2023/01/08 03:30:57;;;;;;;9.93;8.93;;;3.10;99.90;;;;;;4986640;28;20307;-77
2023/01/08 03:33:27;;;;;;;9.00;8.20;;;3.10;99.90;;;;;;4987518;28;20805;-80
2023/01/08 03:35:57;;;;;;;9.55;8.65;;;3.10;99.90;;;;;;4985575;28;20232;-76
2023/01/08 03:38:27;;;;;;;9.90;8.90;;;3.10;99.90;;;;;;4987000;28;20654;-76
2023/01/08 03:40:57;;;;;;;8.55;7.85;;;3.20;99.90;;;;;;4985934;28;21267;-76
2023/01/08 03:43:27;;;;;;;9.50;8.60;;;3.20;99.90;;;;;;4986549;28;20205;-79
2023/01/08 03:45:58;;;;;;;10.05;9.10;;;3.20;99.90;;;;;;4981891;28;20256;-77
2023/01/08 03:48:27;;;;;;;9.48;8.57;;;3.30;99.90;;;;;;4988413;28;20197;-76
2023/01/08 03:50:54;;;;;;;9.68;8.82;;;3.30;99.90;;;;;;4987101;28;20233;-79
2023/01/08 03:53:21;;;;;;;10.32;9.32;;;3.30;99.90;;;;;;4984501;28;20225;-78
2023/01/08 03:55:48;;;;;;;11.25;10.15;;;3.40;99.90;;;;;;4984724;28;20235;-77
2023/01/08 03:58:15;;;;;;;10.73;9.73;;;3.30;99.90;;;;;;4988051;28;20706;-75
2023/01/08 04:00:43;;;;;;;9.75;8.80;;;3.30;99.90;;;;;;4981840;28;20220;-76
2023/01/08 04:03:10;;;;;;;11.45;9.50;;;3.30;99.90;;;;;;4987042;28;20197;-77
2023/01/08 04:05:37;;;;;;;9.55;8.73;;;3.30;99.90;;;;;;4984121;28;20224;-77
2023/01/08 04:08:05;;;;;;;8.85;7.95;;;3.30;99.90;;;;;;4984330;28;20274;-80
2023/01/08 04:10:32;;;;;;;10.07;9.13;;;3.30;99.90;;;;;;4983346;28;20217;-77
2023/01/08 04:12:59;;;;;;;9.80;8.90;;;3.20;99.90;;;;;;4985369;28;20217;-77
2023/01/08 04:15:26;;;;;;;9.38;8.50;;;3.20;99.90;;;;;;4985545;28;20212;-78
2023/01/08 04:17:55;;;;;;;8.60;7.90;;;3.10;99.90;;;;;;4985548;28;20197;-77
2023/01/08 04:20:22;;;;;;;9.50;7.80;;;3.10;99.90;;;;;;4983280;28;20213;-77
2023/01/08 04:22:49;;;;;;;9.23;8.40;;;3.20;99.90;;;;;;4983085;28;20193;-77
2023/01/08 04:25:16;;;;;;;8.68;7.97;;;3.20;99.90;;;;;;4987093;28;20267;-77
2023/01/08 04:27:43;;;;;;;8.95;8.05;;;3.20;99.90;;;;;;4983694;28;20228;-77
2023/01/08 04:30:11;;;;;;;8.45;7.75;;;3.20;99.90;;;;;;4984722;28;20223;-78
2023/01/08 04:32:38;;;;;;;7.90;7.20;;;3.20;99.90;;;;;;4984049;28;20591;-76
2023/01/08 04:35:07;;;;;;;8.35;7.63;;;3.30;99.90;;;;;;4986203;28;20225;-77
2023/01/08 04:37:34;;;;;;;8.32;7.65;;;3.30;99.90;;;;;;4985396;28;20654;-79
2023/01/08 04:40:01;;;;;;;8.73;7.93;;;3.40;99.90;;;;;;4985470;28;20225;-78
2023/01/08 04:42:28;;;;;;;8.27;7.47;;;3.40;99.90;;;;;;4983663;28;20860;-78
2023/01/08 04:44:55;;;;;;;9.13;8.30;;;3.50;99.90;;;;;;4983378;28;20218;-78
2023/01/08 04:47:22;;;;;;;9.60;8.65;;;3.50;99.90;;;;;;4983009;28;20224;-77
2023/01/08 04:49:49;;;;;;;9.68;8.77;;;3.50;99.90;;;;;;4983842;28;20225;-77
2023/01/08 04:52:17;;;;;;;9.18;8.27;;;3.50;99.90;;;;;;4986868;28;20619;-80
2023/01/08 04:54:45;;;;;;;9.93;9.00;;;3.40;99.90;;;;;;4980589;28;20311;-77
2023/01/08 04:57:12;;;;;;;8.23;7.53;;;3.30;99.90;;;;;;4985619;28;20271;-75
2023/01/08 04:59:39;;;;;;;8.48;7.75;;;3.30;99.90;;;;;;4986845;28;20283;-77
2023/01/08 05:02:06;;;;;;;8.60;7.80;;;3.30;99.90;;;;;;4988525;28;20204;-77
2023/01/08 05:04:33;;;;;;;9.00;8.20;;;3.30;99.90;;;;;;4985496;28;20224;-77
2023/01/08 05:07:00;;;;;;;9.63;8.77;;;3.30;99.90;;;;;;4985814;28;20286;-77
2023/01/08 05:09:28;;;;;;;9.25;8.38;;;3.30;99.90;;;;;;4984775;28;20200;-76
2023/01/08 05:11:55;;;;;;;8.30;7.50;;;3.30;99.90;;;;;;4984148;28;20597;-77
2023/01/08 05:14:22;;;;;;;8.35;7.60;;;3.30;99.90;;;;;;4989349;28;20216;-77
2023/01/08 05:16:49;;;;;;;8.85;8.07;;;3.30;99.90;;;;;;4986550;28;20225;-77
2023/01/08 05:19:16;;;;;;;7.80;7.15;;;3.30;99.90;;;;;;4985287;28;20730;-77
2023/01/08 05:21:44;;;;;;;9.40;8.55;;;3.40;99.90;;;;;;4985590;28;20644;-79
2023/01/08 05:24:11;;;;;;;8.77;8.02;;;3.40;99.90;;;;;;4983933;28;20200;-78
2023/01/08 05:26:39;;;;;;;9.88;8.98;;;3.40;99.90;;;;;;4987122;28;20227;-77
2023/01/08 05:29:06;;;;;;;8.32;7.63;;;3.40;99.90;;;;;;4987249;28;20212;-77
2023/01/08 05:31:33;;;;;;;9.20;8.30;;;3.30;99.90;;;;;;4983795;28;20219;-76
2023/01/08 05:34:00;;;;;;;9.50;8.70;;;3.30;99.90;;;;;;4985163;28;20224;-77
2023/01/08 05:36:27;;;;;;;8.50;7.70;;;3.40;99.90;;;;;;4985947;28;20233;-78
2023/01/08 05:38:55;;;;;;;8.40;7.70;;;3.40;99.90;;;;;;4986023;28;20687;-75
2023/01/08 05:41:22;;;;;;;8.43;7.63;;;3.40;99.90;;;;;;4987769;28;20220;-78
2023/01/08 05:43:50;;;;;;;9.18;8.38;;;3.40;99.90;;;;;;4990633;28;20197;-77
2023/01/08 05:46:17;;;;;;;9.40;8.43;;;3.40;99.90;;;;;;4991496;28;20853;-79
2023/01/08 05:48:44;;;;;;;8.38;7.68;;;3.30;99.90;;;;;;4989462;28;20208;-78
2023/01/08 05:51:11;;;;;;;9.77;8.88;;;3.10;99.90;;;;;;4985280;28;20240;-78
2023/01/08 05:53:38;;;;;;;8.77;7.97;;;3.00;99.90;;;;;;4990494;28;20212;-78
2023/01/08 05:56:07;;;;;;;8.10;7.40;;;3.00;99.90;;;;;;4986930;28;20286;-76
2023/01/08 05:58:35;;;;;;;9.25;8.45;;;3.10;99.90;;;;;;4986294;28;20197;-78
2023/01/08 06:01:05;;;;;;;8.45;7.75;;;3.10;99.90;;;;;;4988727;28;20229;-76
2023/01/08 06:03:32;;;;;;;8.80;7.90;;;3.10;99.90;;;;;;4996421;28;20193;-76
2023/01/08 06:06:00;;;;;;;8.40;7.63;;;3.20;99.90;;;;;;4985789;28;20229;-75
2023/01/08 06:08:27;;;;;;;8.80;8.02;;;3.20;99.90;;;;;;4987681;28;20201;-77
2023/01/08 06:10:54;;;;;;;8.50;7.70;;;3.30;99.90;;;;;;4987738;28;20248;-77
2023/01/08 06:13:21;;;;;;;8.43;7.70;;;3.30;99.90;;;;;;4992072;28;20272;-78
2023/01/08 06:15:48;;;;;;;9.00;8.20;;;3.40;99.90;;;;;;4988083;28;20225;-78
2023/01/08 06:18:17;;;;;;;7.93;7.22;;;3.40;99.90;;;;;;4992902;28;20640;-77
2023/01/08 06:20:44;;;;;;;8.38;7.68;;;3.40;99.90;;;;;;4993110;28;20227;-74
2023/01/08 06:23:11;;;;;;;7.90;7.20;;;3.50;99.90;;;;;;4992705;28;20601;-79
2023/01/08 06:25:38;;;;;;;8.57;7.68;;;3.50;99.90;;;;;;4988684;28;20633;-77
2023/01/08 06:28:05;;;;;;;9.18;8.30;;;3.50;99.90;;;;;;4993056;28;20208;-76
2023/01/08 06:30:32;;;;;;;9.70;8.80;;;3.50;99.90;;;;;;4991408;28;20221;-77
2023/01/08 06:33:01;;;;;;;11.27;10.18;;;3.50;99.90;;;;;;4988636;28;20638;-77
2023/01/08 06:35:29;;;;;;;10.40;9.40;;;3.50;99.90;;;;;;4988016;28;20618;-77
2023/01/08 06:37:56;;;;;;;9.93;8.93;;;3.40;99.90;;;;;;4989748;28;20676;-78
2023/01/08 06:40:24;;;;;;;10.05;9.05;;;3.40;99.90;;;;;;4990959;28;20225;-77
2023/01/08 06:42:51;;;;;;;10.10;9.07;;;3.40;99.90;;;;;;4990380;28;20255;-77
2023/01/08 06:45:18;;;;;;;9.32;8.52;;;3.40;99.90;;;;;;4990778;28;20217;-77
2023/01/08 06:47:45;;;;;;;8.63;7.82;;;3.30;99.90;;;;;;4989007;28;20278;-78
2023/01/08 06:50:12;;;;;;;9.23;8.25;;;3.20;99.90;;;;;;4989018;28;20232;-78
2023/01/08 06:52:41;;;;;;;8.70;7.90;;;3.10;99.90;;;;;;4988833;28;20208;-77
2023/01/08 06:55:09;;;;;;;8.20;7.47;;;3.00;99.90;;;;;;4991377;28;20233;-77
2023/01/08 06:57:38;;;;;;;7.85;7.15;;;3.00;99.90;;;;;;4989420;28;20217;-78
2023/01/08 07:00:06;;;;;;;8.48;7.78;;;3.00;99.90;;;;;;4990079;28;20249;-77
2023/01/08 07:02:33;;;;;;;7.97;7.22;;;3.00;99.90;;;;;;4990579;28;20255;-78
2023/01/08 07:05:00;;;;;;;8.32;7.28;;;3.10;99.90;;;;;;4988243;28;20235;-78
2023/01/08 07:07:27;;;;;;;8.07;7.38;;;3.10;99.90;;;;;;4990147;28;20221;-78
2023/01/08 07:09:56;;;;;;;8.30;7.60;;;3.10;99.90;;;;;;4989872;28;20634;-77
2023/01/08 07:12:23;;;;;;;10.20;8.40;;;3.10;99.90;;;;;;4991209;28;20197;-79
2023/01/08 07:14:50;;;;;;;8.93;8.02;;;3.10;99.90;;;;;;4988289;28;20233;-78
2023/01/08 07:17:17;;;;;;;9.68;8.80;;;3.10;99.90;;;;;;4990206;28;20706;-78
2023/01/08 07:19:44;;;;;;;10.35;9.35;;;3.10;99.90;;;;;;4989810;28;20236;-80
2023/01/08 07:22:11;;;;;;;10.48;9.55;;;3.10;99.90;;;;;;4990660;28;20212;-77
2023/01/08 07:24:38;;;;;;;12.32;11.13;;;3.10;99.90;;;;;;4991167;28;20299;-77
2023/01/08 07:27:06;;;;;;;10.68;9.68;;;3.00;99.90;;;;;;4987537;28;20295;-77
2023/01/08 07:29:33;;;;;;;9.27;8.38;;;3.00;99.90;;;;;;4990615;28;20217;-77
2023/01/08 07:32:01;;;;;;;8.95;8.15;;;3.00;99.90;;;;;;4988112;28;20217;-76
2023/01/08 07:34:28;;;;;;;10.20;9.20;;;3.00;99.90;;;;;;4989538;28;20228;-77
2023/01/08 07:36:55;;;;;;;9.57;8.77;;;3.00;99.90;;;;;;4985945;28;20235;-76
2023/01/08 07:39:22;;;;;;;8.73;7.93;;;3.00;99.90;;;;;;4988715;28;20232;-76
2023/01/08 07:41:49;;;;;;;8.65;7.95;;;3.00;99.90;;;;;;4988601;28;20205;-76
2023/01/08 07:44:17;;;;;;;8.88;8.07;;;3.00;99.90;;;;;;4985186;28;20236;-78
2023/01/08 07:46:44;;;;;;;8.25;7.55;;;3.10;99.90;;;;;;4988970;28;20275;-76
2023/01/08 07:49:11;;;;;;;8.18;7.47;;;3.20;99.90;;;;;;4987946;28;20634;-78
2023/01/08 07:51:38;;;;;;;8.23;7.45;;;3.20;99.90;;;;;;4987973;28;20197;-78
2023/01/08 07:54:06;;;;;;;7.30;6.70;;;3.30;99.90;;;;;;4987553;28;20220;-77
2023/01/08 07:56:33;;;;;;;8.43;7.70;;;3.30;99.90;;;;;;4989207;28;20223;-76
2023/01/08 07:59:00;;;;;;;8.00;7.40;;;3.40;99.90;;;;;;4986133;28;20204;-76
2023/01/08 08:01:28;;;;;;;8.00;7.30;;;3.40;99.90;;;;;;4987776;28;20224;-76
2023/01/08 08:03:55;;;;;;;7.45;6.78;;;3.40;99.90;;;;;;4983475;28;20224;-78
2023/01/08 08:06:22;;;;;;;8.25;7.55;;;3.40;99.90;;;;;;4985679;28;20260;-81
2023/01/08 08:08:49;;;;;;;8.50;7.60;;;3.50;99.90;;;;;;4986715;28;20205;-79
2023/01/08 08:11:16;;;;;;;7.95;7.25;;;3.40;99.90;;;;;;4987336;28;20826;-77
2023/01/08 08:13:43;;;;;;;8.32;7.60;;;3.40;99.90;;;;;;4988382;28;20197;-77
2023/01/08 08:16:11;;;;;;;7.50;6.80;;;3.50;99.90;;;;;;4988363;28;20782;-78
2023/01/08 08:18:40;;;;;;;7.72;7.03;;;3.50;99.90;;;;;;4988366;28;20296;-78
2023/01/08 08:21:07;;;;;;;9.93;8.93;;;3.60;99.90;;;;;;4986245;28;20867;-78
2023/01/08 08:23:34;;;;;;;9.93;9.02;;;3.70;99.90;;;;;;4982193;28;20202;-77
2023/01/08 08:26:03;;;;;;;9.73;8.80;;;3.70;99.90;;;;;;4982983;28;20232;-79
2023/01/08 08:28:30;;;;;;;9.48;8.57;;;3.60;99.90;;;;;;4983634;28;20232;-79
2023/01/08 08:30:57;;;;;;;8.88;8.07;;;3.60;99.90;;;;;;4985504;28;20217;-79
2023/01/08 08:33:24;;;;;;;8.98;8.07;;;3.50;99.90;;;;;;4981797;28;20201;-77
2023/01/08 08:35:52;;;;;;;10.93;8.80;;;3.50;99.90;;;;;;4985164;28;20239;-77
2023/01/08 08:38:19;;;;;;;10.43;9.32;;;3.50;99.90;;;;;;4985749;28;20211;-74
2023/01/08 08:40:46;;;;;;;10.98;9.88;;;3.60;99.90;;;;;;4981207;28;20221;-78
2023/01/08 08:43:13;;;;;;;10.27;9.35;;;3.60;99.90;;;;;;4982291;28;20197;-76
2023/01/08 08:45:41;;;;;;;8.80;8.10;;;3.50;99.90;;;;;;4980623;28;20231;-75
2023/01/08 08:48:08;;;;;;;9.80;8.85;;;3.50;99.90;;;;;;4981798;28;20201;-78
2023/01/08 08:50:35;;;;;;;9.00;8.30;;;3.40;99.90;;;;;;4997047;23;20219;-69
2023/01/08 08:53:05;;;;;;;8.88;8.07;;;3.50;99.90;;;;;;4983964;28;20204;-71
2023/01/08 08:55:33;;;;;;;9.13;8.35;;;3.60;99.90;;;;;;4983111;28;20229;-70
2023/01/08 08:58:05;;;;;;;9.85;8.93;;;3.60;99.90;;;;;;4980471;28;20357;-70
2023/01/08 09:00:32;;;;;;;9.40;8.60;;;3.60;99.90;;;;;;4981778;28;20228;-70
2023/01/08 09:02:59;;;;;;;8.40;7.75;;;3.40;99.90;;;;;;4982071;28;20707;-69
2023/01/08 09:05:26;;;;;;;8.35;7.65;;;3.30;99.90;;;;;;4980079;28;20580;-69
2023/01/08 09:07:54;;;;;;;7.72;7.03;;;3.20;99.90;;;;;;4978363;28;20201;-70
2023/01/08 09:10:23;;;;;;;7.38;6.68;;;3.20;99.90;;;;;;4983136;28;20267;-68
2023/01/08 09:12:50;;;;;;;8.07;7.38;;;3.20;99.90;;;;;;4984519;28;20209;-69
2023/01/08 09:15:17;;;;;;;7.65;6.95;;;3.30;99.90;;;;;;4980536;28;20228;-69
2023/01/08 09:17:45;;;;;;;8.02;7.35;;;3.50;99.90;;;;;;4982338;28;20699;-69
2023/01/08 09:20:12;;;;;;;7.38;6.78;;;3.60;99.90;;;;;;4983407;28;21049;-69
2023/01/08 09:22:39;;;;;;;9.65;8.80;;;3.70;99.90;;;;;;4980320;28;20205;-69
2023/01/08 09:25:06;;;;;;;8.90;8.10;;;3.80;99.90;;;;;;4983751;28;20225;-69
2023/01/08 09:27:35;;;;;;;8.32;7.63;;;3.80;99.90;;;;;;4982290;28;20844;-68
2023/01/08 09:30:02;;;;;;;8.35;7.65;;;3.90;99.90;;;;;;4983003;28;20236;-69
2023/01/08 09:32:29;;;;;;;8.52;7.72;;;4.00;99.90;;;;;;4982419;28;20955;-70
2023/01/08 09:34:56;;;;;;;8.00;7.20;;;4.10;99.90;;;;;;4980424;28;20236;-69
2023/01/08 09:37:23;;;;;;;8.52;7.75;;;4.20;99.90;;;;;;4983238;28;20533;-70
2023/01/08 09:39:50;;;;;;;8.63;7.82;;;4.20;99.90;;;;;;4982052;28;20295;-70
2023/01/08 09:42:22;;;;;;;9.63;8.73;;;4.20;99.90;;;;;;4985137;28;20200;-71
2023/01/08 09:44:53;;;;;;;10.60;9.43;;;4.20;99.90;;;;;;4981922;28;20276;-70
2023/01/08 09:47:25;;;;;;;13.32;10.52;;;4.20;99.90;;;;;;4978913;28;20208;-70
2023/01/08 09:49:54;;;;;;;13.75;12.27;;;4.10;99.90;;;;;;4983025;28;20267;-71
2023/01/08 09:52:21;;;;;;;13.80;12.35;;;4.10;99.90;;;;;;4980732;28;20205;-71
2023/01/08 09:54:49;;;;;;;15.10;13.13;;;4.10;99.90;;;;;;4983030;28;20715;-71
2023/01/08 09:57:18;;;;;;;13.77;12.45;;;4.20;99.90;;;;;;4981238;28;20201;-70
2023/01/08 09:59:47;;;;;;;12.75;11.55;;;4.30;99.90;;;;;;4980889;28;20261;-70
2023/01/08 10:02:17;;;;;;;12.10;10.90;;;4.30;99.90;;;;;;4982187;28;20296;-70
2023/01/08 10:04:45;;;;;;;11.60;10.40;;;4.40;99.90;;;;;;4982485;28;20220;-71
2023/01/08 10:07:20;;;;;;;15.10;12.60;;;4.50;99.90;;;;;;4983151;28;20259;-70
2023/01/08 10:09:49;;;;;;;15.23;13.60;;;4.50;99.90;;;;;;4981903;28;20973;-70
2023/01/08 10:12:18;;;;;;;14.02;12.55;;;4.70;99.90;;;;;;4981177;28;20649;-70
2023/01/08 10:14:48;;;;;;;12.27;11.07;;;4.70;99.90;;;;;;4982053;28;20235;-70
2023/01/08 10:17:26;;;;;;;12.38;11.10;;;4.60;99.90;;;;;;4983136;28;20410;-71
2023/01/08 10:19:53;;;;;;;12.77;11.48;;;4.50;99.90;;;;;;4982054;28;20307;-70
2023/01/08 10:22:22;;;;;;;11.90;10.80;;;4.40;99.90;;;;;;4980696;28;20231;-69
2023/01/08 10:24:50;;;;;;;13.32;11.95;;;4.30;99.90;;;;;;4983351;28;20229;-71
2023/01/08 10:27:19;;;;;;;10.75;9.75;;;4.30;99.90;;;;;;4984638;28;20205;-71
2023/01/08 10:29:46;;;;;;;10.32;9.32;;;4.20;99.90;;;;;;4985503;28;20236;-71
2023/01/08 10:32:17;;;;;;;10.15;9.25;;;4.20;99.90;;;;;;4984575;28;20232;-71
2023/01/08 10:34:49;;;;;;;10.70;9.70;;;4.40;99.90;;;;;;4982581;28;20232;-70
2023/01/08 10:37:25;;;;;;;10.77;9.77;;;4.60;99.90;;;;;;4987315;28;20201;-70
2023/01/08 10:39:55;;;;;;;10.93;9.98;;;4.70;99.90;;;;;;4978855;28;20246;-70
2023/01/08 10:42:24;;;;;;;11.07;9.93;;;4.70;99.90;;;;;;4981729;28;20216;-71
2023/01/08 10:44:58;;;;;;;11.93;10.73;;;4.80;99.90;;;;;;4984905;28;20561;-70
2023/01/08 10:47:28;;;;;;;11.60;10.40;;;4.80;99.90;;;;;;4981457;28;20200;-70
2023/01/08 10:49:58;;;;;;;12.43;11.13;;;4.90;99.90;;;;;;4980879;28;20217;-69
2023/01/08 10:52:31;;;;;;;13.05;11.68;;;4.90;99.90;;;;;;4985288;28;20208;-70
2023/01/08 10:55:10;;;;;;;12.35;11.15;;;4.90;99.90;;;;;;4982203;28;20221;-71
2023/01/08 10:57:40;;;;;;;12.40;11.18;;;4.90;99.90;;;;;;4984984;28;21117;-71
2023/01/08 11:00:23;;;;;;;11.55;10.45;;;4.80;99.90;;;;;;4981285;28;20222;-69
2023/01/08 11:02:50;;;;;;;11.38;10.27;;;4.80;99.90;;;;;;4982988;28;20300;-70
2023/01/08 11:05:19;;;;;;;11.35;10.25;;;4.80;99.90;;;;;;4981230;28;20227;-71
2023/01/08 11:07:51;;;;;;;10.48;9.48;;;4.80;99.90;;;;;;4982915;28;20243;-70
2023/01/08 11:10:24;;;;;;;10.38;9.38;;;4.80;99.90;;;;;;4982735;28;20271;-69
2023/01/08 11:12:56;;;;;;;10.23;9.18;;;4.80;99.90;;;;;;4984106;28;20749;-70
2023/01/08 11:15:37;;;;;;;12.27;11.10;;;4.90;99.90;;;;;;4981766;28;20224;-70
2023/01/08 11:18:21;;;;;;;12.23;11.00;;;4.90;99.90;;;;;;4981730;28;20198;-70
2023/01/08 11:20:51;;;;;;;10.85;9.82;;;4.90;99.90;;;;;;4981308;28;20236;-70
2023/01/08 11:23:23;;;;;;;9.93;9.02;;;4.80;99.90;;;;;;4984819;28;20209;-70
2023/01/08 11:25:59;;;;;;;10.15;9.25;;;4.80;99.90;;;;;;4983639;28;20244;-69
2023/01/08 11:28:32;;;;;;;10.68;9.63;;;4.80;99.90;;;;;;4985668;28;20208;-69
2023/01/08 11:31:10;;;;;;;10.23;9.32;;;4.80;99.90;;;;;;4980534;28;20232;-70
2023/01/08 11:33:41;;;;;;;9.57;8.63;;;4.80;99.90;;;;;;4983942;28;20284;-70
2023/01/08 11:36:20;;;;;;;10.27;9.27;;;4.70;99.90;;;;;;4984548;28;20784;-69
2023/01/08 11:38:47;;;;;;;9.63;8.73;;;4.60;99.90;;;;;;4985217;28;20193;-70
2023/01/08 11:41:30;;;;;;;9.82;8.93;;;4.60;99.90;;;;;;4986533;28;20221;-69
2023/01/08 11:44:12;;;;;;;11.40;10.20;;;4.60;99.90;;;;;;4981240;28;20200;-68
2023/01/08 11:46:46;;;;;;;11.88;10.68;;;4.40;99.90;;;;;;4982654;28;20229;-70
2023/01/08 11:49:41;;;;;;;13.15;11.95;;;4.30;99.90;;;;;;4978992;28;20237;-70
2023/01/08 11:52:27;;;;;;;14.55;13.13;;;4.10;99.90;;;;;;4984900;28;20948;-70
2023/01/08 11:55:20;;;;;;;12.15;10.95;;;4.00;99.90;;;;;;4980129;28;20968;-71
2023/01/08 11:58:01;;;;;;;11.32;10.23;;;4.00;99.90;;;;;;4977113;28;20578;-70
2023/01/08 12:00:50;;;;;;;11.85;10.75;;;4.20;99.90;;;;;;4985903;28;20232;-70
2023/01/08 12:03:26;;;;;;;11.80;10.60;;;4.20;99.90;;;;;;4982135;28;20193;-70
2023/01/08 12:06:00;;;;;;;11.27;10.20;;;4.30;99.90;;;;;;4984309;28;20225;-70
2023/01/08 12:08:38;;;;;;;10.32;9.07;;;4.30;99.90;;;;;;4979138;28;20660;-71
2023/01/08 12:11:16;;;;;;;12.85;11.65;;;4.30;99.90;;;;;;4982154;28;20287;-70
2023/01/08 12:13:56;;;;;;;14.23;12.70;;;4.30;99.90;;;;;;4984899;28;20212;-69
2023/01/08 12:16:44;;;;;;;12.18;11.02;;;4.20;99.90;;;;;;4981091;28;20241;-70
2023/01/08 12:19:23;;;;;;;11.55;10.48;;;4.20;99.90;;;;;;4983422;28;20227;-70
2023/01/08 12:22:19;;;;;;;11.95;10.75;;;4.20;99.90;;;;;;4985140;28;20662;-69
2023/01/08 12:25:07;;;;;;;10.77;9.77;;;4.40;99.90;;;;;;4983369;28;20224;-70
2023/01/08 12:27:44;;;;;;;10.32;9.35;;;4.50;99.90;;;;;;4981035;28;20208;-70
2023/01/08 12:30:21;;;;;;;9.63;8.77;;;4.70;99.90;;;;;;4981380;28;20410;-71
2023/01/08 12:32:52;;;;;;;10.25;9.27;;;4.80;99.90;;;;;;4984607;28;20197;-70
2023/01/08 12:35:24;;;;;;;10.73;9.68;;;4.80;99.90;;;;;;4981391;28;20295;-70
2023/01/08 12:37:54;;;;;;;11.02;10.02;;;4.90;99.90;;;;;;4986334;28;20200;-69
2023/01/08 12:40:27;;;;;;;11.57;10.45;;;4.90;99.90;;;;;;4984007;28;20229;-68
2023/01/08 12:42:54;;;;;;;11.32;10.23;;;4.80;99.90;;;;;;4984166;28;20259;-70
2023/01/08 12:45:27;;;;;;;14.90;13.32;;;4.60;99.90;;;;;;4986237;28;20228;-69
2023/01/08 12:47:58;;;;;;;18.98;15.55;;;4.30;99.90;;;;;;4985695;28;20894;-69
2023/01/08 12:50:41;;;;;;;80.95;34.10;;;4.00;99.90;;;;;;4983810;28;20229;-69
2023/01/08 12:53:17;;;;;;;30.90;17.80;;;3.80;99.90;;;;;;4980816;28;20224;-67
2023/01/08 12:55:52;;;;;;;20.55;14.77;;;3.80;99.90;;;;;;4982605;28;20224;-69
2023/01/08 12:58:37;;;;;;;16.08;13.45;;;3.70;99.90;;;;;;4982846;28;20200;-69
2023/01/08 13:01:16;;;;;;;15.40;13.32;;;3.60;99.90;;;;;;4979489;28;20231;-69
2023/01/08 13:03:44;;;;;;;16.27;14.52;;;3.40;99.90;;;;;;4980367;28;20200;-69